General Aviation Weather

Text Reports

Enter one or more of the following location identifiers separated by a space:

Zip Code, Four-Character ICAO or Three-Character IATA airport codes.

METAR - Aviation Routine Weather Report
KRAC - Racine, Wisconsin
Updated at 1:53 AM GMT on July 12, 2014 (8:53 PM CDT):
METAR KRAC 120153Z AUTO 18004KT 10SM BKN110 21/14 A3014 RMK AO2 SLP202 T02110144
TAF - Terminal Area Forecast
KRAC - Racine, Wisconsin
Updated at 1:53 AM GMT on July 12, 2014 (8:53 PM CDT):
No TAF is currently available for this location.
Decoded:
No decoded TAF is available.
PIREP - Pilot Weather Report
KRAC - Racine, Wisconsin
Updated at 1:53 AM GMT on July 12, 2014 (8:53 PM CDT):
No PIREP is currently available for this location.
AIRMET - Airmens Meteorological Information
KRAC - Racine, Wisconsin
Updated at 1:53 AM GMT on July 12, 2014 (8:53 PM CDT):
No AIRMET is currently available for this location.
SIGMET - Significant Meteorological Information
KRAC - Racine, Wisconsin
Updated at 1:53 AM GMT on July 12, 2014 (8:53 PM CDT):
No SIGMET is currently available for this location.
NOTAM - Notice to Airmen
KRAC - Racine, Wisconsin
Updated at 1:53 AM GMT on July 12, 2014 (8:53 PM CDT):
No NOTAM is currently available for this location.
Forecast Area
KRAC - Racine, Wisconsin
Updated at 1:53 AM GMT on July 12, 2014 (8:53 PM CDT):
No NOTAM is currently available for this location.
Aviation Weather Maps